createdAt,value
2018-11-07T00:00:49.777Z,8.90
2018-11-07T00:03:19.047Z,8.90
2018-11-07T00:05:47.603Z,8.80
2018-11-07T00:08:16.214Z,8.80
2018-11-07T00:10:44.334Z,8.70
2018-11-07T00:13:12.671Z,8.70
2018-11-07T00:15:41.015Z,8.80
2018-11-07T00:18:09.698Z,8.80
2018-11-07T00:20:37.948Z,8.80
2018-11-07T00:23:06.571Z,8.80
2018-11-07T00:25:34.835Z,8.90
2018-11-07T00:28:03.100Z,8.80
2018-11-07T00:30:32.252Z,8.70
2018-11-07T00:33:00.495Z,8.50
2018-11-07T00:35:28.781Z,8.60
2018-11-07T00:37:57.471Z,8.60
2018-11-07T00:40:25.747Z,8.60
2018-11-07T00:42:53.979Z,8.70
2018-11-07T00:45:22.575Z,8.60
2018-11-07T00:47:51.463Z,8.60
2018-11-07T00:50:19.918Z,8.50
2018-11-07T00:52:48.143Z,8.50
2018-11-07T00:55:16.655Z,8.60
2018-11-07T00:57:45.066Z,8.60
2018-11-07T01:00:15.510Z,8.60
2018-11-07T01:02:44.505Z,8.50
2018-11-07T01:05:13.758Z,8.50
2018-11-07T01:07:42.995Z,8.50
2018-11-07T01:10:11.728Z,8.50
2018-11-07T01:12:40.391Z,8.40
2018-11-07T01:15:09.280Z,8.40
2018-11-07T01:17:38.057Z,8.30
2018-11-07T01:20:07.771Z,8.40
2018-11-07T01:22:36.136Z,8.30
2018-11-07T01:25:05.228Z,8.30
2018-11-07T01:27:33.466Z,8.30
2018-11-07T01:30:01.699Z,8.40
2018-11-07T01:34:53.489Z,8.30
2018-11-07T01:37:21.993Z,8.30
2018-11-07T01:39:50.254Z,8.40
2018-11-07T01:42:18.952Z,8.40
2018-11-07T01:44:47.550Z,8.40
2018-11-07T01:47:15.811Z,8.40
2018-11-07T01:49:44.060Z,8.20
2018-11-07T01:52:12.341Z,8.10
2018-11-07T01:54:42.269Z,8.20
2018-11-07T01:57:10.551Z,8.20
2018-11-07T01:59:38.823Z,8.20
2018-11-07T02:02:07.091Z,8.30
2018-11-07T02:04:36.007Z,8.30
2018-11-07T02:07:04.398Z,8.40
2018-11-07T02:10:57.417Z,8.20
2018-11-07T02:13:25.637Z,8.20
2018-11-07T02:15:54.022Z,8.20
2018-11-07T02:18:22.662Z,8.10
2018-11-07T02:20:50.942Z,8.20
2018-11-07T02:23:19.199Z,8.20
2018-11-07T02:25:47.611Z,8.20
2018-11-07T02:28:15.904Z,8.10
2018-11-07T02:30:44.232Z,8.00
2018-11-07T02:33:12.794Z,8.00
2018-11-07T02:35:41.089Z,8.10
2018-11-07T02:38:09.607Z,8.00
2018-11-07T02:40:37.857Z,7.90
2018-11-07T02:43:06.075Z,7.90
2018-11-07T02:45:34.701Z,7.90
2018-11-07T02:48:03.523Z,8.00
2018-11-07T02:50:31.759Z,8.00
2018-11-07T02:52:59.996Z,8.00
2018-11-07T02:55:28.682Z,8.00
2018-11-07T02:57:56.921Z,8.10
2018-11-07T03:00:25.223Z,8.00
2018-11-07T03:02:54.033Z,8.00
2018-11-07T03:05:22.709Z,8.10
2018-11-07T03:07:51.494Z,8.10
2018-11-07T03:10:19.793Z,7.90
2018-11-07T03:12:47.995Z,7.90
2018-11-07T03:15:16.227Z,8.00
2018-11-07T03:17:44.891Z,7.90
2018-11-07T03:20:13.391Z,7.90
2018-11-07T03:22:41.903Z,7.80
2018-11-07T03:25:10.147Z,7.70
2018-11-07T03:27:38.377Z,7.70
2018-11-07T03:30:07.476Z,7.70
2018-11-07T03:32:36.172Z,7.70
2018-11-07T03:35:05.195Z,7.70
2018-11-07T03:37:33.807Z,7.60
2018-11-07T03:40:02.059Z,7.50
2018-11-07T03:42:30.266Z,7.50
2018-11-07T03:44:58.875Z,7.70
2018-11-07T03:47:27.095Z,7.80
2018-11-07T03:49:55.292Z,7.70
2018-11-07T03:52:23.531Z,7.70
2018-11-07T03:54:52.303Z,7.70
2018-11-07T03:57:20.539Z,7.80
2018-11-07T03:59:48.752Z,7.80
2018-11-07T04:02:16.998Z,7.80
2018-11-07T04:04:45.828Z,7.70
2018-11-07T04:07:14.093Z,7.70
2018-11-07T04:09:42.278Z,7.70
2018-11-07T04:12:10.803Z,7.70
2018-11-07T04:14:39.022Z,7.60
2018-11-07T04:17:07.623Z,7.70
2018-11-07T04:19:35.850Z,7.70
2018-11-07T04:22:04.125Z,7.70
2018-11-07T04:24:32.404Z,7.70
2018-11-07T04:27:00.607Z,7.80
2018-11-07T04:29:30.123Z,7.80
2018-11-07T04:31:58.406Z,7.70
2018-11-07T04:34:27.139Z,7.70
2018-11-07T04:36:56.177Z,7.60
2018-11-07T04:39:25.047Z,7.70
2018-11-07T04:41:53.287Z,7.80
2018-11-07T04:44:22.007Z,7.60
2018-11-07T04:46:50.305Z,7.50
2018-11-07T04:49:18.546Z,7.60
2018-11-07T04:51:46.846Z,7.60
2018-11-07T04:54:15.649Z,7.50
2018-11-07T04:56:43.875Z,7.40
2018-11-07T04:59:12.085Z,7.30
2018-11-07T05:01:40.362Z,7.40
2018-11-07T05:04:09.180Z,7.40
2018-11-07T05:06:37.391Z,7.20
2018-11-07T05:09:06.841Z,7.20
2018-11-07T05:11:35.400Z,7.10
2018-11-07T05:14:04.247Z,7.20
2018-11-07T05:16:32.443Z,7.40
2018-11-07T05:19:00.961Z,7.50
2018-11-07T05:21:29.207Z,7.50
2018-11-07T05:23:57.528Z,7.40
2018-11-07T05:26:25.804Z,7.50
2018-11-07T05:28:53.954Z,7.60
2018-11-07T05:31:22.242Z,7.50
2018-11-07T05:33:51.016Z,7.40
2018-11-07T05:36:19.587Z,7.40
2018-11-07T05:38:48.114Z,7.20
2018-11-07T05:41:16.660Z,7.30
2018-11-07T05:43:45.197Z,7.40
2018-11-07T05:46:13.451Z,7.40
2018-11-07T05:48:42.110Z,7.50
2018-11-07T05:53:50.425Z,7.60
2018-11-07T05:56:18.946Z,7.50
2018-11-07T05:58:47.169Z,7.20
2018-11-07T06:01:15.442Z,7.20
2018-11-07T06:03:44.154Z,7.30
2018-11-07T06:06:12.424Z,7.10
2018-11-07T06:08:40.684Z,7.10
2018-11-07T06:11:09.471Z,7.00
2018-11-07T06:13:37.758Z,7.10
2018-11-07T06:16:06.429Z,7.10
2018-11-07T06:18:34.899Z,6.80
2018-11-07T06:21:03.176Z,6.90
2018-11-07T06:23:31.872Z,7.00
2018-11-07T06:26:00.143Z,7.00
2018-11-07T06:28:28.424Z,7.10
2018-11-07T06:30:56.904Z,7.20
2018-11-07T06:33:25.718Z,7.10
2018-11-07T06:35:54.142Z,6.90
2018-11-07T06:38:22.958Z,6.80
2018-11-07T06:40:51.555Z,6.90
2018-11-07T06:43:20.137Z,6.80
2018-11-07T06:45:48.394Z,6.90
2018-11-07T06:48:16.652Z,7.00
2018-11-07T06:50:44.866Z,7.10
2018-11-07T06:53:13.119Z,7.30
2018-11-07T06:55:42.160Z,7.30
2018-11-07T06:58:10.438Z,7.40
2018-11-07T07:00:39.292Z,7.60
2018-11-07T07:03:08.171Z,7.50
2018-11-07T07:05:36.406Z,7.50
2018-11-07T07:08:04.803Z,7.60
2018-11-07T07:10:33.309Z,7.70
2018-11-07T07:13:01.968Z,7.80
2018-11-07T07:15:30.661Z,7.90
2018-11-07T07:17:59.269Z,8.00
2018-11-07T07:20:27.842Z,8.10
2018-11-07T07:22:56.068Z,8.10
2018-11-07T07:25:24.330Z,8.20
2018-11-07T07:27:52.831Z,8.30
2018-11-07T07:30:21.820Z,8.20
2018-11-07T07:32:50.443Z,8.20
2018-11-07T07:35:19.195Z,8.30
2018-11-07T07:37:47.822Z,8.20
2018-11-07T07:40:16.611Z,8.30
2018-11-07T07:42:46.934Z,8.40
2018-11-07T07:45:17.682Z,8.50
2018-11-07T07:47:46.058Z,8.60
2018-11-07T07:50:15.601Z,8.60
2018-11-07T07:52:44.398Z,8.70
2018-11-07T07:55:13.326Z,8.70
2018-11-07T07:57:42.139Z,8.70
2018-11-07T08:00:11.973Z,8.70
2018-11-07T08:02:42.614Z,8.90
2018-11-07T08:05:11.543Z,9.00
2018-11-07T08:07:40.234Z,9.00
2018-11-07T08:10:10.914Z,8.90
2018-11-07T08:12:39.515Z,8.90
2018-11-07T08:15:08.291Z,9.00
2018-11-07T08:17:36.971Z,9.10
2018-11-07T08:20:06.231Z,9.20
2018-11-07T08:22:34.504Z,9.20
2018-11-07T08:25:03.345Z,9.30
2018-11-07T08:27:32.508Z,9.30
2018-11-07T08:30:00.785Z,9.30
2018-11-07T08:32:29.043Z,9.40
2018-11-07T08:34:57.311Z,9.50
2018-11-07T08:37:26.315Z,9.50
2018-11-07T08:39:54.588Z,9.50
2018-11-07T08:42:22.941Z,9.50
2018-11-07T08:44:51.218Z,9.60
2018-11-07T08:49:47.736Z,9.90
2018-11-07T08:52:16.615Z,9.90
2018-11-07T08:54:45.458Z,10.00
2018-11-07T08:57:13.678Z,10.10
2018-11-07T08:59:42.584Z,10.00
2018-11-07T09:02:10.924Z,10.00
2018-11-07T09:04:39.646Z,10.20
2018-11-07T09:07:07.924Z,10.20
2018-11-07T09:09:36.180Z,10.20
2018-11-07T09:12:05.603Z,10.10
2018-11-07T09:14:33.815Z,10.10
2018-11-07T09:17:02.611Z,10.30
2018-11-07T09:19:30.840Z,10.40
2018-11-07T09:21:59.063Z,10.30
2018-11-07T09:24:27.404Z,10.00
2018-11-07T09:26:55.591Z,10.10
2018-11-07T09:29:23.973Z,10.10
2018-11-07T09:31:52.165Z,10.10
2018-11-07T09:34:20.548Z,10.30
2018-11-07T09:36:49.330Z,10.30
2018-11-07T09:39:17.602Z,10.30
2018-11-07T09:41:45.863Z,10.20
2018-11-07T09:44:14.167Z,10.00
2018-11-07T09:46:42.843Z,9.90
2018-11-07T09:49:11.738Z,10.30
2018-11-07T09:51:39.938Z,10.20
2018-11-07T09:54:08.750Z,10.40
2018-11-07T09:56:36.951Z,10.40
2018-11-07T09:59:05.928Z,10.30
2018-11-07T10:01:34.167Z,10.50
2018-11-07T10:04:03.113Z,10.80
2018-11-07T10:06:31.367Z,10.90
2018-11-07T10:09:00.080Z,11.00
2018-11-07T10:11:28.429Z,10.90
2018-11-07T10:13:57.209Z,11.00
2018-11-07T10:16:25.459Z,11.40
2018-11-07T10:18:54.268Z,11.40
2018-11-07T10:21:22.739Z,11.40
2018-11-07T10:23:51.027Z,11.40
2018-11-07T10:26:19.562Z,11.40
2018-11-07T10:28:48.037Z,11.40
2018-11-07T10:31:16.185Z,11.70
2018-11-07T10:33:45.157Z,11.70
2018-11-07T10:36:13.426Z,11.80
2018-11-07T10:38:42.604Z,12.00
2018-11-07T10:41:10.743Z,12.10
2018-11-07T10:43:39.015Z,12.10
2018-11-07T10:46:07.685Z,11.90
2018-11-07T10:48:35.920Z,11.80
2018-11-07T10:51:04.192Z,12.10
2018-11-07T10:53:32.450Z,11.80
2018-11-07T10:56:01.183Z,11.80
2018-11-07T10:58:29.409Z,11.70
2018-11-07T11:01:04.189Z,12.10
2018-11-07T11:03:33.043Z,12.30
2018-11-07T11:06:01.302Z,12.40
2018-11-07T11:08:29.520Z,12.30
2018-11-07T11:10:57.803Z,12.30
2018-11-07T11:13:26.082Z,12.60
2018-11-07T11:15:54.431Z,12.90
2018-11-07T11:18:22.903Z,12.80
2018-11-07T11:20:51.179Z,12.90
2018-11-07T11:23:19.471Z,12.80
2018-11-07T11:25:47.732Z,12.80
2018-11-07T11:28:15.956Z,13.00
2018-11-07T11:30:44.232Z,13.20
2018-11-07T11:33:12.868Z,13.20
2018-11-07T11:35:41.091Z,13.00
2018-11-07T11:38:09.626Z,13.00
2018-11-07T11:40:38.444Z,12.90
2018-11-07T11:43:06.743Z,12.90
2018-11-07T11:45:35.011Z,13.00
2018-11-07T11:48:03.291Z,13.20
2018-11-07T11:50:32.027Z,13.40
2018-11-07T11:53:00.304Z,13.50
2018-11-07T11:55:28.887Z,13.70
2018-11-07T11:57:57.113Z,13.50
2018-11-07T12:00:25.340Z,13.60
2018-11-07T12:02:54.124Z,13.80
2018-11-07T12:05:22.863Z,13.60
2018-11-07T12:07:51.103Z,13.50
2018-11-07T12:10:21.511Z,13.50
2018-11-07T12:12:51.810Z,13.50
2018-11-07T12:15:21.084Z,13.60
2018-11-07T12:17:49.821Z,13.50
2018-11-07T12:20:18.730Z,13.70
2018-11-07T12:22:47.114Z,13.70
2018-11-07T12:25:16.032Z,13.90
2018-11-07T12:27:44.435Z,14.00
2018-11-07T12:30:15.523Z,14.10
2018-11-07T12:32:44.912Z,14.20
2018-11-07T12:35:14.099Z,14.30
2018-11-07T12:37:43.604Z,14.10
2018-11-07T12:40:12.316Z,14.30
2018-11-07T12:42:41.447Z,14.30
2018-11-07T12:45:10.999Z,13.90
2018-11-07T12:47:41.119Z,13.70
2018-11-07T12:50:11.587Z,13.80
2018-11-07T12:52:39.687Z,14.00
2018-11-07T12:55:09.811Z,13.90
2018-11-07T12:57:38.274Z,13.70
2018-11-07T13:00:10.641Z,13.90
2018-11-07T13:02:39.428Z,13.70
2018-11-07T13:05:09.162Z,13.40
2018-11-07T13:07:37.386Z,13.30
2018-11-07T13:10:07.819Z,13.20
2018-11-07T13:12:36.105Z,13.00
2018-11-07T13:15:05.675Z,13.00
2018-11-07T13:17:35.232Z,13.00
2018-11-07T13:20:03.573Z,13.10
2018-11-07T13:22:31.906Z,13.30
2018-11-07T13:25:00.557Z,13.40
2018-11-07T13:27:28.785Z,13.40
2018-11-07T13:29:57.035Z,13.40
2018-11-07T13:32:25.263Z,13.50
2018-11-07T13:34:54.034Z,13.30
2018-11-07T13:37:22.870Z,13.40
2018-11-07T13:39:50.958Z,13.30
2018-11-07T13:42:19.155Z,13.30
2018-11-07T13:44:47.510Z,13.30
2018-11-07T13:47:15.717Z,13.30
2018-11-07T13:49:44.067Z,13.30
2018-11-07T13:52:12.288Z,13.20
2018-11-07T13:54:41.312Z,13.00
2018-11-07T13:57:09.535Z,13.00
2018-11-07T13:59:37.781Z,13.00
2018-11-07T14:02:06.011Z,12.90
2018-11-07T14:04:34.774Z,12.90
2018-11-07T14:07:03.056Z,12.90
2018-11-07T14:09:31.322Z,12.90
2018-11-07T14:12:00.143Z,13.00
2018-11-07T14:14:28.381Z,12.90
2018-11-07T14:16:57.147Z,12.70
2018-11-07T14:19:25.373Z,12.50
2018-11-07T14:21:53.992Z,12.50
2018-11-07T14:24:22.787Z,12.40
2018-11-07T14:26:51.020Z,12.20
2018-11-07T14:29:19.262Z,12.20
2018-11-07T14:31:47.554Z,12.10
2018-11-07T14:34:15.796Z,12.20
2018-11-07T14:36:44.751Z,12.10
2018-11-07T14:39:13.004Z,12.10
2018-11-07T14:41:41.259Z,12.10
2018-11-07T14:44:09.539Z,12.10
2018-11-07T14:46:37.854Z,12.10
2018-11-07T14:49:06.095Z,12.10
2018-11-07T14:51:34.367Z,12.10
2018-11-07T14:54:03.129Z,12.00
2018-11-07T14:56:31.920Z,11.90
2018-11-07T14:59:00.212Z,11.80
2018-11-07T15:01:28.822Z,11.80
2018-11-07T15:03:57.579Z,11.70
2018-11-07T15:06:25.820Z,11.60
2018-11-07T15:08:54.243Z,11.70
2018-11-07T15:11:22.867Z,11.50
2018-11-07T15:13:51.060Z,11.50
2018-11-07T15:16:19.786Z,11.40
2018-11-07T15:18:48.679Z,11.40
2018-11-07T15:21:16.921Z,11.30
2018-11-07T15:23:45.149Z,11.30
2018-11-07T15:26:13.683Z,11.30
2018-11-07T15:28:41.970Z,11.00
2018-11-07T15:31:10.236Z,10.90
2018-11-07T15:33:38.715Z,10.90
2018-11-07T15:36:07.038Z,10.80
2018-11-07T15:38:35.443Z,10.90
2018-11-07T15:41:03.719Z,10.80
2018-11-07T15:43:32.015Z,10.80
2018-11-07T15:46:00.291Z,10.70
2018-11-07T15:48:28.567Z,10.60
2018-11-07T15:51:02.146Z,10.60
2018-11-07T15:53:31.056Z,10.50
2018-11-07T15:55:59.895Z,10.50
2018-11-07T15:58:28.635Z,10.50
2018-11-07T16:00:56.939Z,10.40
2018-11-07T16:03:30.959Z,10.40
2018-11-07T16:05:59.223Z,10.30
2018-11-07T16:08:27.860Z,10.20
2018-11-07T16:10:56.086Z,10.10
2018-11-07T16:13:24.398Z,10.20
2018-11-07T16:15:52.635Z,10.20
2018-11-07T16:18:21.175Z,10.20
2018-11-07T16:20:49.512Z,10.10
2018-11-07T16:23:17.730Z,10.00
2018-11-07T16:25:46.078Z,10.10
2018-11-07T16:28:14.382Z,10.10
2018-11-07T16:33:11.933Z,10.20
2018-11-07T16:35:40.175Z,10.20
2018-11-07T16:38:09.268Z,10.20
2018-11-07T16:40:38.430Z,10.20
2018-11-07T16:43:06.995Z,10.20
2018-11-07T16:45:35.699Z,10.10
2018-11-07T16:48:04.384Z,10.20
2018-11-07T16:50:32.642Z,10.20
2018-11-07T16:53:01.380Z,10.30
2018-11-07T16:55:30.067Z,10.30
2018-11-07T16:57:58.343Z,10.40
2018-11-07T17:00:26.580Z,10.40
2018-11-07T17:02:56.210Z,10.50
2018-11-07T17:05:24.831Z,10.40
2018-11-07T17:07:53.063Z,10.40
2018-11-07T17:10:21.323Z,10.40
2018-11-07T17:12:49.616Z,10.40
2018-11-07T17:15:17.890Z,10.40
2018-11-07T17:17:46.394Z,10.50
2018-11-07T17:20:15.692Z,10.50
2018-11-07T17:22:44.057Z,10.40
2018-11-07T17:25:14.379Z,10.50
2018-11-07T17:27:42.788Z,10.50
2018-11-07T17:30:12.227Z,10.50
2018-11-07T17:32:41.033Z,10.50
2018-11-07T17:35:11.117Z,10.50
2018-11-07T17:37:40.052Z,10.60
2018-11-07T17:40:10.602Z,10.40
2018-11-07T17:42:39.339Z,10.40
2018-11-07T17:45:10.607Z,10.40
2018-11-07T17:47:39.289Z,10.40
2018-11-07T17:50:08.740Z,10.30
2018-11-07T17:52:37.095Z,10.30
2018-11-07T17:55:06.204Z,10.40
2018-11-07T17:57:34.471Z,10.40
2018-11-07T18:00:02.810Z,10.20
2018-11-07T18:02:31.382Z,10.20
2018-11-07T18:05:00.105Z,10.30
2018-11-07T18:07:28.888Z,10.30
2018-11-07T18:09:57.288Z,10.40
2018-11-07T18:12:25.443Z,10.30
2018-11-07T18:14:53.702Z,10.20
2018-11-07T18:17:22.383Z,10.20
2018-11-07T18:19:50.967Z,10.20
2018-11-07T18:22:19.231Z,10.10
2018-11-07T18:24:47.458Z,10.10
2018-11-07T18:27:16.340Z,10.20
2018-11-07T18:29:44.622Z,10.20
2018-11-07T18:32:12.924Z,10.20
2018-11-07T18:34:41.171Z,10.30
2018-11-07T18:37:09.979Z,10.30
2018-11-07T18:39:38.635Z,10.20
2018-11-07T18:42:07.831Z,10.10
2018-11-07T18:44:36.165Z,10.20
2018-11-07T18:47:05.144Z,10.10
2018-11-07T18:49:33.373Z,10.10
2018-11-07T18:52:01.660Z,10.20
2018-11-07T18:54:30.411Z,10.20
2018-11-07T18:56:59.446Z,10.30
2018-11-07T18:59:27.719Z,10.20
2018-11-07T19:01:55.974Z,10.30
2018-11-07T19:04:24.826Z,10.30
2018-11-07T19:06:53.131Z,10.20
2018-11-07T19:09:21.918Z,10.10
2018-11-07T19:11:50.168Z,10.30
2018-11-07T19:14:18.379Z,10.20
2018-11-07T19:16:47.299Z,10.20
2018-11-07T19:19:15.739Z,10.20
2018-11-07T19:21:43.995Z,10.20
2018-11-07T19:24:12.631Z,10.20
2018-11-07T19:26:41.932Z,10.20
2018-11-07T19:29:10.103Z,10.30
2018-11-07T19:31:38.375Z,10.30
2018-11-07T19:34:06.652Z,10.30
2018-11-07T19:36:35.965Z,10.30
2018-11-07T19:39:07.219Z,10.30
2018-11-07T19:41:36.100Z,10.20
2018-11-07T19:44:04.879Z,10.20
2018-11-07T19:46:33.683Z,10.20
2018-11-07T19:49:01.916Z,10.20
2018-11-07T19:51:30.235Z,10.10
2018-11-07T19:53:58.924Z,10.20
2018-11-07T19:56:27.076Z,10.20
2018-11-07T19:58:55.434Z,10.10
2018-11-07T20:01:23.719Z,10.10
2018-11-07T20:03:52.287Z,10.20
2018-11-07T20:06:20.953Z,10.20
2018-11-07T20:08:49.897Z,10.10
2018-11-07T20:11:18.142Z,10.20
2018-11-07T20:13:46.427Z,10.10
2018-11-07T20:16:14.978Z,10.00
2018-11-07T20:18:43.670Z,10.10
2018-11-07T20:21:11.880Z,10.00
2018-11-07T20:23:40.121Z,10.10
2018-11-07T20:26:08.827Z,10.10
2018-11-07T20:28:37.092Z,10.20
2018-11-07T20:31:05.652Z,10.10
2018-11-07T20:33:34.347Z,10.10
2018-11-07T20:36:02.676Z,10.10
2018-11-07T20:38:31.645Z,10.20
2018-11-07T20:41:00.499Z,10.20
2018-11-07T20:43:28.746Z,10.20
2018-11-07T20:45:57.430Z,10.30
2018-11-07T20:48:25.672Z,10.20
2018-11-07T20:50:53.902Z,10.20
2018-11-07T20:53:22.520Z,10.20
2018-11-07T20:55:51.229Z,10.20
2018-11-07T20:58:20.026Z,10.20
2018-11-07T21:00:48.319Z,10.10
2018-11-07T21:03:17.120Z,10.20
2018-11-07T21:05:45.362Z,10.20
2018-11-07T21:08:13.583Z,10.10
2018-11-07T21:10:41.812Z,10.10
2018-11-07T21:13:10.101Z,10.10
2018-11-07T21:15:38.514Z,10.20
2018-11-07T21:18:07.111Z,10.20
2018-11-07T21:20:35.992Z,10.10
2018-11-07T21:23:04.295Z,10.00
2018-11-07T21:25:32.941Z,10.00
2018-11-07T21:28:01.227Z,10.00
2018-11-07T21:30:29.551Z,10.00
2018-11-07T21:32:57.887Z,10.00
2018-11-07T21:35:26.219Z,10.00
2018-11-07T21:37:54.838Z,10.00
2018-11-07T21:40:23.067Z,9.90
2018-11-07T21:42:51.965Z,9.80
2018-11-07T21:45:20.639Z,9.90
2018-11-07T21:47:48.915Z,9.80
2018-11-07T21:50:17.659Z,9.90
2018-11-07T21:52:46.696Z,10.00
2018-11-07T21:55:15.376Z,10.00
2018-11-07T21:57:43.657Z,10.00
2018-11-07T22:00:17.921Z,9.90
2018-11-07T22:02:46.793Z,10.00
2018-11-07T22:05:16.163Z,10.00
2018-11-07T22:07:44.491Z,10.00
2018-11-07T22:10:14.974Z,10.00
2018-11-07T22:12:43.233Z,10.00
2018-11-07T22:15:11.515Z,10.00
2018-11-07T22:17:40.457Z,10.00
2018-11-07T22:20:11.035Z,9.90
2018-11-07T22:22:39.286Z,9.90
2018-11-07T22:25:07.592Z,9.90
2018-11-07T22:27:36.053Z,10.00
2018-11-07T22:30:04.655Z,9.80
2018-11-07T22:32:33.087Z,9.80
2018-11-07T22:35:01.408Z,9.70
2018-11-07T22:37:30.038Z,9.70
2018-11-07T22:39:58.529Z,9.70
2018-11-07T22:42:27.260Z,9.80
2018-11-07T22:44:55.508Z,9.70
2018-11-07T22:47:24.091Z,9.80
2018-11-07T22:49:52.354Z,9.60
2018-11-07T22:52:20.623Z,9.40
2018-11-07T22:54:49.356Z,9.40
2018-11-07T22:57:18.091Z,9.40
2018-11-07T22:59:46.340Z,9.30
2018-11-07T23:02:14.608Z,9.40
2018-11-07T23:04:43.456Z,9.50
2018-11-07T23:07:11.668Z,9.60
2018-11-07T23:09:39.908Z,9.50
2018-11-07T23:12:08.653Z,9.60
2018-11-07T23:14:36.900Z,9.60
2018-11-07T23:17:05.452Z,9.60
2018-11-07T23:19:33.672Z,9.60
2018-11-07T23:22:01.943Z,9.70
2018-11-07T23:24:30.715Z,9.70
2018-11-07T23:27:04.947Z,9.70
2018-11-07T23:29:33.259Z,9.70
2018-11-07T23:32:01.531Z,9.50
2018-11-07T23:34:29.831Z,9.50
2018-11-07T23:36:58.405Z,9.60
2018-11-07T23:39:26.627Z,9.60
2018-11-07T23:41:55.911Z,9.60
2018-11-07T23:44:24.875Z,9.50
2018-11-07T23:46:53.567Z,9.60
2018-11-07T23:49:21.871Z,9.60
2018-11-07T23:51:50.618Z,9.60
2018-11-07T23:54:21.055Z,9.60
2018-11-07T23:56:49.871Z,9.60
2018-11-07T23:59:18.362Z,9.70
